sensor_id;sensor_type;location;lat;lon;timestamp;P1;durP1;ratioP1;P2;durP2;ratioP2
17686;SDS011;8962;52.538;13.266;2023-03-04T00:00:06;53.63;;;23.88;;
17686;SDS011;8962;52.538;13.266;2023-03-04T00:02:37;63.00;;;23.95;;
17686;SDS011;8962;52.538;13.266;2023-03-04T00:05:05;53.80;;;24.20;;
17686;SDS011;8962;52.538;13.266;2023-03-04T00:07:33;60.35;;;25.27;;
17686;SDS011;8962;52.538;13.266;2023-03-04T00:10:01;56.30;;;24.05;;
17686;SDS011;8962;52.538;13.266;2023-03-04T00:12:28;57.13;;;23.63;;
17686;SDS011;8962;52.538;13.266;2023-03-04T00:14:55;52.95;;;22.95;;
17686;SDS011;8962;52.538;13.266;2023-03-04T00:17:24;59.10;;;25.00;;
17686;SDS011;8962;52.538;13.266;2023-03-04T00:19:54;54.63;;;22.52;;
17686;SDS011;8962;52.538;13.266;2023-03-04T00:22:22;52.55;;;24.30;;
17686;SDS011;8962;52.538;13.266;2023-03-04T00:24:49;56.55;;;24.10;;
17686;SDS011;8962;52.538;13.266;2023-03-04T00:27:16;55.97;;;22.83;;
17686;SDS011;8962;52.538;13.266;2023-03-04T00:29:43;55.67;;;23.98;;
17686;SDS011;8962;52.538;13.266;2023-03-04T00:32:12;52.03;;;21.10;;
17686;SDS011;8962;52.538;13.266;2023-03-04T00:34:43;54.20;;;21.48;;
17686;SDS011;8962;52.538;13.266;2023-03-04T00:37:11;51.47;;;20.88;;
17686;SDS011;8962;52.538;13.266;2023-03-04T00:39:38;48.97;;;21.10;;
17686;SDS011;8962;52.538;13.266;2023-03-04T00:42:06;46.95;;;18.60;;
17686;SDS011;8962;52.538;13.266;2023-03-04T00:44:33;47.90;;;20.00;;
17686;SDS011;8962;52.538;13.266;2023-03-04T00:47:01;45.80;;;18.70;;
17686;SDS011;8962;52.538;13.266;2023-03-04T00:49:28;44.85;;;18.23;;
17686;SDS011;8962;52.538;13.266;2023-03-04T00:51:58;47.03;;;18.88;;
17686;SDS011;8962;52.538;13.266;2023-03-04T00:54:25;40.47;;;17.13;;
17686;SDS011;8962;52.538;13.266;2023-03-04T00:56:52;42.10;;;17.13;;
17686;SDS011;8962;52.538;13.266;2023-03-04T00:59:19;49.80;;;17.70;;
17686;SDS011;8962;52.538;13.266;2023-03-04T01:01:47;38.88;;;15.98;;
17686;SDS011;8962;52.538;13.266;2023-03-04T01:04:17;46.15;;;17.52;;
17686;SDS011;8962;52.538;13.266;2023-03-04T01:06:44;43.83;;;16.42;;
17686;SDS011;8962;52.538;13.266;2023-03-04T01:09:13;39.35;;;16.02;;
17686;SDS011;8962;52.538;13.266;2023-03-04T01:11:40;35.90;;;15.02;;
17686;SDS011;8962;52.538;13.266;2023-03-04T01:14:07;40.70;;;14.52;;
17686;SDS011;8962;52.538;13.266;2023-03-04T01:16:35;39.65;;;14.77;;
17686;SDS011;8962;52.538;13.266;2023-03-04T01:19:02;37.35;;;14.00;;
17686;SDS011;8962;52.538;13.266;2023-03-04T01:21:30;37.58;;;13.32;;
17686;SDS011;8962;52.538;13.266;2023-03-04T01:23:57;32.45;;;13.00;;
17686;SDS011;8962;52.538;13.266;2023-03-04T01:26:26;33.03;;;12.70;;
17686;SDS011;8962;52.538;13.266;2023-03-04T01:28:53;33.08;;;13.00;;
17686;SDS011;8962;52.538;13.266;2023-03-04T01:31:22;40.47;;;12.98;;
17686;SDS011;8962;52.538;13.266;2023-03-04T01:33:50;36.58;;;12.32;;
17686;SDS011;8962;52.538;13.266;2023-03-04T01:36:17;31.52;;;12.65;;
17686;SDS011;8962;52.538;13.266;2023-03-04T01:38:44;35.33;;;12.15;;
17686;SDS011;8962;52.538;13.266;2023-03-04T01:41:13;33.90;;;12.52;;
17686;SDS011;8962;52.538;13.266;2023-03-04T01:43:44;28.58;;;11.40;;
17686;SDS011;8962;52.538;13.266;2023-03-04T01:46:11;34.58;;;11.60;;
17686;SDS011;8962;52.538;13.266;2023-03-04T01:48:41;36.25;;;11.38;;
17686;SDS011;8962;52.538;13.266;2023-03-04T01:51:11;44.35;;;11.52;;
17686;SDS011;8962;52.538;13.266;2023-03-04T01:53:41;33.08;;;11.50;;
17686;SDS011;8962;52.538;13.266;2023-03-04T01:56:14;27.52;;;10.13;;
17686;SDS011;8962;52.538;13.266;2023-03-04T01:58:49;27.45;;;10.23;;
17686;SDS011;8962;52.538;13.266;2023-03-04T02:01:36;33.35;;;10.85;;
17686;SDS011;8962;52.538;13.266;2023-03-04T02:04:05;30.67;;;9.85;;
17686;SDS011;8962;52.538;13.266;2023-03-04T02:06:34;33.78;;;10.00;;
17686;SDS011;8962;52.538;13.266;2023-03-04T02:09:03;31.70;;;9.93;;
17686;SDS011;8962;52.538;13.266;2023-03-04T02:11:33;27.00;;;9.00;;
17686;SDS011;8962;52.538;13.266;2023-03-04T02:14:07;31.52;;;9.32;;
17686;SDS011;8962;52.538;13.266;2023-03-04T02:16:35;27.20;;;9.00;;
17686;SDS011;8962;52.538;13.266;2023-03-04T02:19:09;25.00;;;8.68;;
17686;SDS011;8962;52.538;13.266;2023-03-04T02:21:43;27.10;;;8.70;;
17686;SDS011;8962;52.538;13.266;2023-03-04T02:24:11;28.02;;;8.43;;
17686;SDS011;8962;52.538;13.266;2023-03-04T02:26:46;31.63;;;8.90;;
17686;SDS011;8962;52.538;13.266;2023-03-04T02:29:15;24.70;;;8.65;;
17686;SDS011;8962;52.538;13.266;2023-03-04T02:31:44;25.40;;;7.95;;
17686;SDS011;8962;52.538;13.266;2023-03-04T02:34:14;31.40;;;8.75;;
17686;SDS011;8962;52.538;13.266;2023-03-04T02:36:43;30.60;;;8.77;;
17686;SDS011;8962;52.538;13.266;2023-03-04T02:39:12;25.77;;;8.48;;
17686;SDS011;8962;52.538;13.266;2023-03-04T02:41:51;29.70;;;8.65;;
17686;SDS011;8962;52.538;13.266;2023-03-04T02:44:21;30.13;;;7.75;;
17686;SDS011;8962;52.538;13.266;2023-03-04T02:46:50;22.15;;;8.20;;
17686;SDS011;8962;52.538;13.266;2023-03-04T02:49:21;34.03;;;9.18;;
17686;SDS011;8962;52.538;13.266;2023-03-04T02:51:51;27.73;;;8.82;;
17686;SDS011;8962;52.538;13.266;2023-03-04T02:54:21;27.25;;;8.80;;
17686;SDS011;8962;52.538;13.266;2023-03-04T02:56:51;22.25;;;8.00;;
17686;SDS011;8962;52.538;13.266;2023-03-04T02:59:21;27.92;;;8.18;;
17686;SDS011;8962;52.538;13.266;2023-03-04T03:01:50;28.58;;;7.75;;
17686;SDS011;8962;52.538;13.266;2023-03-04T03:04:19;28.10;;;8.07;;
17686;SDS011;8962;52.538;13.266;2023-03-04T03:06:51;28.15;;;8.73;;
17686;SDS011;8962;52.538;13.266;2023-03-04T03:09:20;23.23;;;7.78;;
17686;SDS011;8962;52.538;13.266;2023-03-04T03:11:47;25.33;;;7.60;;
17686;SDS011;8962;52.538;13.266;2023-03-04T03:14:16;32.22;;;7.93;;
17686;SDS011;8962;52.538;13.266;2023-03-04T03:16:44;26.50;;;8.00;;
17686;SDS011;8962;52.538;13.266;2023-03-04T03:19:11;24.63;;;6.90;;
17686;SDS011;8962;52.538;13.266;2023-03-04T03:21:40;23.55;;;7.10;;
17686;SDS011;8962;52.538;13.266;2023-03-04T03:24:11;29.08;;;7.78;;
17686;SDS011;8962;52.538;13.266;2023-03-04T03:26:40;24.38;;;7.40;;
17686;SDS011;8962;52.538;13.266;2023-03-04T03:29:08;22.38;;;6.95;;
17686;SDS011;8962;52.538;13.266;2023-03-04T03:31:42;22.90;;;6.40;;
17686;SDS011;8962;52.538;13.266;2023-03-04T03:34:10;22.58;;;6.07;;
17686;SDS011;8962;52.538;13.266;2023-03-04T03:36:37;28.50;;;7.03;;
17686;SDS011;8962;52.538;13.266;2023-03-04T03:39:06;25.33;;;6.65;;
17686;SDS011;8962;52.538;13.266;2023-03-04T03:41:34;19.05;;;7.40;;
17686;SDS011;8962;52.538;13.266;2023-03-04T03:44:01;23.73;;;6.88;;
17686;SDS011;8962;52.538;13.266;2023-03-04T03:46:28;24.52;;;6.60;;
17686;SDS011;8962;52.538;13.266;2023-03-04T03:48:57;23.15;;;6.22;;
17686;SDS011;8962;52.538;13.266;2023-03-04T03:51:24;22.95;;;6.75;;
17686;SDS011;8962;52.538;13.266;2023-03-04T03:53:52;18.58;;;6.28;;
17686;SDS011;8962;52.538;13.266;2023-03-04T03:56:20;23.30;;;6.47;;
17686;SDS011;8962;52.538;13.266;2023-03-04T03:58:47;22.23;;;6.32;;
17686;SDS011;8962;52.538;13.266;2023-03-04T04:01:15;26.60;;;6.55;;
17686;SDS011;8962;52.538;13.266;2023-03-04T04:03:42;18.83;;;6.20;;
17686;SDS011;8962;52.538;13.266;2023-03-04T04:06:10;19.08;;;6.15;;
17686;SDS011;8962;52.538;13.266;2023-03-04T04:08:38;16.20;;;5.93;;
17686;SDS011;8962;52.538;13.266;2023-03-04T04:11:11;20.95;;;6.05;;
17686;SDS011;8962;52.538;13.266;2023-03-04T04:13:39;25.35;;;6.13;;
17686;SDS011;8962;52.538;13.266;2023-03-04T04:16:08;17.60;;;5.50;;
17686;SDS011;8962;52.538;13.266;2023-03-04T04:18:35;22.80;;;5.80;;
17686;SDS011;8962;52.538;13.266;2023-03-04T04:21:03;20.85;;;5.75;;
17686;SDS011;8962;52.538;13.266;2023-03-04T04:23:33;19.27;;;5.40;;
17686;SDS011;8962;52.538;13.266;2023-03-04T04:26:00;15.07;;;5.18;;
17686;SDS011;8962;52.538;13.266;2023-03-04T04:28:27;17.40;;;5.00;;
17686;SDS011;8962;52.538;13.266;2023-03-04T04:30:54;20.30;;;5.93;;
17686;SDS011;8962;52.538;13.266;2023-03-04T04:33:22;29.42;;;5.65;;
17686;SDS011;8962;52.538;13.266;2023-03-04T04:35:49;20.20;;;5.20;;
17686;SDS011;8962;52.538;13.266;2023-03-04T04:38:18;19.77;;;5.72;;
17686;SDS011;8962;52.538;13.266;2023-03-04T04:40:50;19.50;;;4.82;;
17686;SDS011;8962;52.538;13.266;2023-03-04T04:43:17;21.13;;;4.78;;
17686;SDS011;8962;52.538;13.266;2023-03-04T04:45:45;17.63;;;5.88;;
17686;SDS011;8962;52.538;13.266;2023-03-04T04:48:13;23.42;;;5.25;;
17686;SDS011;8962;52.538;13.266;2023-03-04T04:50:41;16.73;;;4.78;;
17686;SDS011;8962;52.538;13.266;2023-03-04T04:53:09;17.25;;;5.13;;
17686;SDS011;8962;52.538;13.266;2023-03-04T04:55:37;18.52;;;4.80;;
17686;SDS011;8962;52.538;13.266;2023-03-04T04:58:06;19.80;;;5.50;;
17686;SDS011;8962;52.538;13.266;2023-03-04T05:00:34;15.57;;;4.88;;
17686;SDS011;8962;52.538;13.266;2023-03-04T05:03:01;16.35;;;5.05;;
17686;SDS011;8962;52.538;13.266;2023-03-04T05:05:28;19.45;;;5.10;;
17686;SDS011;8962;52.538;13.266;2023-03-04T05:08:00;18.70;;;5.20;;
17686;SDS011;8962;52.538;13.266;2023-03-04T05:10:27;20.73;;;4.88;;
17686;SDS011;8962;52.538;13.266;2023-03-04T05:12:55;15.50;;;4.70;;
17686;SDS011;8962;52.538;13.266;2023-03-04T05:15:24;16.25;;;5.30;;
17686;SDS011;8962;52.538;13.266;2023-03-04T05:17:51;18.27;;;5.55;;
17686;SDS011;8962;52.538;13.266;2023-03-04T05:20:19;15.93;;;5.25;;
17686;SDS011;8962;52.538;13.266;2023-03-04T05:22:49;14.25;;;4.40;;
17686;SDS011;8962;52.538;13.266;2023-03-04T05:25:16;20.55;;;4.85;;
17686;SDS011;8962;52.538;13.266;2023-03-04T05:27:43;23.00;;;5.05;;
17686;SDS011;8962;52.538;13.266;2023-03-04T05:30:11;20.33;;;5.05;;
17686;SDS011;8962;52.538;13.266;2023-03-04T05:32:40;17.27;;;4.45;;
17686;SDS011;8962;52.538;13.266;2023-03-04T05:35:08;16.98;;;4.55;;
17686;SDS011;8962;52.538;13.266;2023-03-04T05:37:35;17.17;;;4.43;;
17686;SDS011;8962;52.538;13.266;2023-03-04T05:40:03;15.90;;;4.25;;
17686;SDS011;8962;52.538;13.266;2023-03-04T05:42:31;18.52;;;4.45;;
17686;SDS011;8962;52.538;13.266;2023-03-04T05:45:00;19.02;;;4.90;;
17686;SDS011;8962;52.538;13.266;2023-03-04T05:47:27;19.00;;;4.65;;
17686;SDS011;8962;52.538;13.266;2023-03-04T05:49:56;16.70;;;3.85;;
17686;SDS011;8962;52.538;13.266;2023-03-04T05:52:24;16.08;;;4.00;;
17686;SDS011;8962;52.538;13.266;2023-03-04T05:54:51;15.55;;;4.50;;
17686;SDS011;8962;52.538;13.266;2023-03-04T05:57:18;17.30;;;4.68;;
17686;SDS011;8962;52.538;13.266;2023-03-04T05:59:47;11.88;;;4.10;;
17686;SDS011;8962;52.538;13.266;2023-03-04T06:02:14;19.35;;;4.15;;
17686;SDS011;8962;52.538;13.266;2023-03-04T06:04:44;18.02;;;4.32;;
17686;SDS011;8962;52.538;13.266;2023-03-04T06:07:14;13.88;;;4.03;;
17686;SDS011;8962;52.538;13.266;2023-03-04T06:09:48;10.43;;;4.18;;
17686;SDS011;8962;52.538;13.266;2023-03-04T06:12:15;28.50;;;4.93;;
17686;SDS011;8962;52.538;13.266;2023-03-04T06:14:44;17.13;;;4.22;;
17686;SDS011;8962;52.538;13.266;2023-03-04T06:17:12;18.38;;;5.10;;
17686;SDS011;8962;52.538;13.266;2023-03-04T06:19:40;23.73;;;5.10;;
17686;SDS011;8962;52.538;13.266;2023-03-04T06:22:09;15.80;;;4.57;;
17686;SDS011;8962;52.538;13.266;2023-03-04T06:24:40;12.90;;;4.43;;
17686;SDS011;8962;52.538;13.266;2023-03-04T06:27:07;20.08;;;5.55;;
17686;SDS011;8962;52.538;13.266;2023-03-04T06:29:35;17.45;;;5.38;;
17686;SDS011;8962;52.538;13.266;2023-03-04T06:32:04;12.43;;;3.92;;
17686;SDS011;8962;52.538;13.266;2023-03-04T06:34:31;13.43;;;4.45;;
17686;SDS011;8962;52.538;13.266;2023-03-04T06:36:59;14.88;;;4.13;;
17686;SDS011;8962;52.538;13.266;2023-03-04T06:39:27;18.08;;;4.95;;
17686;SDS011;8962;52.538;13.266;2023-03-04T06:41:55;13.32;;;4.07;;
17686;SDS011;8962;52.538;13.266;2023-03-04T06:44:23;17.15;;;5.10;;
17686;SDS011;8962;52.538;13.266;2023-03-04T06:46:53;11.18;;;4.40;;
17686;SDS011;8962;52.538;13.266;2023-03-04T06:49:20;12.82;;;3.75;;
17686;SDS011;8962;52.538;13.266;2023-03-04T06:51:50;10.70;;;3.88;;
17686;SDS011;8962;52.538;13.266;2023-03-04T06:54:18;15.63;;;4.53;;
17686;SDS011;8962;52.538;13.266;2023-03-04T06:56:46;15.50;;;4.28;;
17686;SDS011;8962;52.538;13.266;2023-03-04T06:59:15;13.55;;;4.93;;
17686;SDS011;8962;52.538;13.266;2023-03-04T07:01:42;15.10;;;4.70;;
17686;SDS011;8962;52.538;13.266;2023-03-04T07:04:09;16.17;;;5.43;;
17686;SDS011;8962;52.538;13.266;2023-03-04T07:06:38;17.48;;;4.57;;
17686;SDS011;8962;52.538;13.266;2023-03-04T07:09:06;13.02;;;3.85;;
17686;SDS011;8962;52.538;13.266;2023-03-04T07:11:33;15.52;;;4.30;;
17686;SDS011;8962;52.538;13.266;2023-03-04T07:14:01;12.65;;;3.97;;
17686;SDS011;8962;52.538;13.266;2023-03-04T07:16:30;11.80;;;3.92;;
17686;SDS011;8962;52.538;13.266;2023-03-04T07:18:57;10.15;;;3.88;;
17686;SDS011;8962;52.538;13.266;2023-03-04T07:21:26;10.45;;;3.38;;
17686;SDS011;8962;52.538;13.266;2023-03-04T07:23:55;12.95;;;3.75;;
17686;SDS011;8962;52.538;13.266;2023-03-04T07:26:22;9.80;;;4.03;;
17686;SDS011;8962;52.538;13.266;2023-03-04T07:28:50;15.68;;;5.10;;
17686;SDS011;8962;52.538;13.266;2023-03-04T07:31:20;9.52;;;3.90;;
17686;SDS011;8962;52.538;13.266;2023-03-04T07:33:50;13.00;;;4.43;;
17686;SDS011;8962;52.538;13.266;2023-03-04T07:36:21;11.82;;;3.83;;
17686;SDS011;8962;52.538;13.266;2023-03-04T07:38:49;11.68;;;3.83;;
17686;SDS011;8962;52.538;13.266;2023-03-04T07:41:20;11.45;;;3.97;;
17686;SDS011;8962;52.538;13.266;2023-03-04T07:43:49;10.07;;;3.30;;
17686;SDS011;8962;52.538;13.266;2023-03-04T07:46:18;11.27;;;3.58;;
17686;SDS011;8962;52.538;13.266;2023-03-04T07:48:46;9.50;;;3.35;;
17686;SDS011;8962;52.538;13.266;2023-03-04T07:51:24;6.85;;;3.17;;
17686;SDS011;8962;52.538;13.266;2023-03-04T07:53:55;5.53;;;3.03;;
17686;SDS011;8962;52.538;13.266;2023-03-04T07:56:25;6.85;;;3.20;;
17686;SDS011;8962;52.538;13.266;2023-03-04T07:58:54;9.13;;;3.40;;
17686;SDS011;8962;52.538;13.266;2023-03-04T08:01:25;5.45;;;2.53;;
17686;SDS011;8962;52.538;13.266;2023-03-04T08:03:54;7.82;;;2.85;;
17686;SDS011;8962;52.538;13.266;2023-03-04T08:06:24;5.68;;;2.38;;
17686;SDS011;8962;52.538;13.266;2023-03-04T08:08:55;8.48;;;2.80;;
17686;SDS011;8962;52.538;13.266;2023-03-04T08:11:24;8.73;;;3.13;;
17686;SDS011;8962;52.538;13.266;2023-03-04T08:13:52;7.13;;;2.70;;
17686;SDS011;8962;52.538;13.266;2023-03-04T08:16:21;7.03;;;2.92;;
17686;SDS011;8962;52.538;13.266;2023-03-04T08:18:50;9.18;;;2.70;;
17686;SDS011;8962;52.538;13.266;2023-03-04T08:21:18;7.90;;;2.70;;
17686;SDS011;8962;52.538;13.266;2023-03-04T08:23:49;8.23;;;2.47;;
17686;SDS011;8962;52.538;13.266;2023-03-04T08:26:18;7.55;;;2.90;;
17686;SDS011;8962;52.538;13.266;2023-03-04T08:28:47;9.38;;;2.33;;
17686;SDS011;8962;52.538;13.266;2023-03-04T08:31:15;9.75;;;2.47;;
17686;SDS011;8962;52.538;13.266;2023-03-04T08:33:43;10.88;;;2.63;;
17686;SDS011;8962;52.538;13.266;2023-03-04T08:36:17;9.38;;;2.63;;
17686;SDS011;8962;52.538;13.266;2023-03-04T08:38:45;11.00;;;2.55;;
17686;SDS011;8962;52.538;13.266;2023-03-04T08:41:14;10.20;;;2.28;;
17686;SDS011;8962;52.538;13.266;2023-03-04T08:43:42;7.45;;;2.90;;
17686;SDS011;8962;52.538;13.266;2023-03-04T08:46:10;9.07;;;2.50;;
17686;SDS011;8962;52.538;13.266;2023-03-04T08:48:38;9.63;;;2.72;;
17686;SDS011;8962;52.538;13.266;2023-03-04T08:51:07;10.43;;;3.00;;
17686;SDS011;8962;52.538;13.266;2023-03-04T08:53:37;11.27;;;3.33;;
17686;SDS011;8962;52.538;13.266;2023-03-04T08:56:11;8.60;;;2.38;;
17686;SDS011;8962;52.538;13.266;2023-03-04T08:58:40;10.77;;;3.22;;
17686;SDS011;8962;52.538;13.266;2023-03-04T09:01:08;11.38;;;2.70;;
17686;SDS011;8962;52.538;13.266;2023-03-04T09:03:36;7.13;;;2.72;;
17686;SDS011;8962;52.538;13.266;2023-03-04T09:06:05;11.43;;;2.72;;
17686;SDS011;8962;52.538;13.266;2023-03-04T09:08:33;8.77;;;2.67;;
17686;SDS011;8962;52.538;13.266;2023-03-04T09:11:00;8.05;;;2.58;;
17686;SDS011;8962;52.538;13.266;2023-03-04T09:13:29;9.93;;;2.22;;
17686;SDS011;8962;52.538;13.266;2023-03-04T09:15:59;11.63;;;2.60;;
17686;SDS011;8962;52.538;13.266;2023-03-04T09:18:28;10.02;;;2.67;;
17686;SDS011;8962;52.538;13.266;2023-03-04T09:20:57;8.40;;;2.30;;
17686;SDS011;8962;52.538;13.266;2023-03-04T09:23:25;6.90;;;2.60;;
17686;SDS011;8962;52.538;13.266;2023-03-04T09:25:52;7.35;;;2.40;;
17686;SDS011;8962;52.538;13.266;2023-03-04T09:28:19;9.77;;;2.45;;
17686;SDS011;8962;52.538;13.266;2023-03-04T09:30:47;7.18;;;1.92;;
17686;SDS011;8962;52.538;13.266;2023-03-04T09:33:17;9.02;;;2.47;;
17686;SDS011;8962;52.538;13.266;2023-03-04T09:35:44;13.05;;;2.75;;
17686;SDS011;8962;52.538;13.266;2023-03-04T09:38:18;9.63;;;2.00;;
17686;SDS011;8962;52.538;13.266;2023-03-04T09:40:49;7.68;;;1.92;;
17686;SDS011;8962;52.538;13.266;2023-03-04T09:43:19;8.60;;;2.20;;
17686;SDS011;8962;52.538;13.266;2023-03-04T09:46:15;7.65;;;2.60;;
17686;SDS011;8962;52.538;13.266;2023-03-04T09:48:51;11.95;;;2.28;;
17686;SDS011;8962;52.538;13.266;2023-03-04T09:51:26;15.00;;;2.67;;
17686;SDS011;8962;52.538;13.266;2023-03-04T09:54:07;9.82;;;2.20;;
17686;SDS011;8962;52.538;13.266;2023-03-04T09:56:39;5.22;;;1.70;;
17686;SDS011;8962;52.538;13.266;2023-03-04T09:59:10;6.47;;;1.52;;
17686;SDS011;8962;52.538;13.266;2023-03-04T10:01:46;8.80;;;2.10;;
17686;SDS011;8962;52.538;13.266;2023-03-04T10:04:18;12.82;;;2.40;;
17686;SDS011;8962;52.538;13.266;2023-03-04T10:06:53;8.25;;;2.80;;
17686;SDS011;8962;52.538;13.266;2023-03-04T10:09:23;15.32;;;2.78;;
17686;SDS011;8962;52.538;13.266;2023-03-04T10:11:56;8.10;;;2.40;;
17686;SDS011;8962;52.538;13.266;2023-03-04T10:14:30;11.32;;;2.60;;
17686;SDS011;8962;52.538;13.266;2023-03-04T10:17:02;12.85;;;2.45;;
17686;SDS011;8962;52.538;13.266;2023-03-04T10:19:43;11.32;;;2.35;;
17686;SDS011;8962;52.538;13.266;2023-03-04T10:22:20;14.07;;;3.05;;
17686;SDS011;8962;52.538;13.266;2023-03-04T10:24:56;11.65;;;2.38;;
17686;SDS011;8962;52.538;13.266;2023-03-04T10:27:24;15.98;;;2.88;;
17686;SDS011;8962;52.538;13.266;2023-03-04T10:29:54;11.85;;;2.58;;
17686;SDS011;8962;52.538;13.266;2023-03-04T10:32:24;14.82;;;2.70;;
17686;SDS011;8962;52.538;13.266;2023-03-04T10:34:52;11.32;;;2.60;;
17686;SDS011;8962;52.538;13.266;2023-03-04T10:37:20;11.10;;;2.75;;
17686;SDS011;8962;52.538;13.266;2023-03-04T10:39:47;15.80;;;2.70;;
17686;SDS011;8962;52.538;13.266;2023-03-04T10:42:24;15.82;;;2.72;;
17686;SDS011;8962;52.538;13.266;2023-03-04T10:45:01;12.43;;;3.00;;
17686;SDS011;8962;52.538;13.266;2023-03-04T10:47:29;16.65;;;3.17;;
17686;SDS011;8962;52.538;13.266;2023-03-04T10:50:02;9.98;;;2.70;;
17686;SDS011;8962;52.538;13.266;2023-03-04T10:52:31;11.90;;;2.65;;
17686;SDS011;8962;52.538;13.266;2023-03-04T10:55:05;17.83;;;2.90;;
17686;SDS011;8962;52.538;13.266;2023-03-04T10:57:41;14.93;;;2.95;;
17686;SDS011;8962;52.538;13.266;2023-03-04T11:00:23;11.85;;;3.10;;
17686;SDS011;8962;52.538;13.266;2023-03-04T11:02:53;16.52;;;3.55;;
17686;SDS011;8962;52.538;13.266;2023-03-04T11:06:13;14.18;;;3.03;;
17686;SDS011;8962;52.538;13.266;2023-03-04T11:08:48;16.73;;;3.75;;
17686;SDS011;8962;52.538;13.266;2023-03-04T11:11:30;14.20;;;2.70;;
17686;SDS011;8962;52.538;13.266;2023-03-04T11:14:09;14.68;;;3.45;;
17686;SDS011;8962;52.538;13.266;2023-03-04T11:16:44;11.13;;;2.50;;
17686;SDS011;8962;52.538;13.266;2023-03-04T11:19:20;19.05;;;3.40;;
17686;SDS011;8962;52.538;13.266;2023-03-04T11:21:56;17.05;;;3.58;;
17686;SDS011;8962;52.538;13.266;2023-03-04T11:24:27;15.18;;;3.55;;
17686;SDS011;8962;52.538;13.266;2023-03-04T11:26:59;20.58;;;4.00;;
17686;SDS011;8962;52.538;13.266;2023-03-04T11:29:30;16.58;;;3.67;;
17686;SDS011;8962;52.538;13.266;2023-03-04T11:32:03;16.75;;;3.42;;
17686;SDS011;8962;52.538;13.266;2023-03-04T11:34:40;16.83;;;3.67;;
17686;SDS011;8962;52.538;13.266;2023-03-04T11:37:14;24.23;;;3.30;;
17686;SDS011;8962;52.538;13.266;2023-03-04T11:39:48;18.50;;;3.42;;
17686;SDS011;8962;52.538;13.266;2023-03-04T11:42:27;13.90;;;3.08;;
17686;SDS011;8962;52.538;13.266;2023-03-04T11:45:00;22.20;;;4.03;;
17686;SDS011;8962;52.538;13.266;2023-03-04T11:50:28;20.48;;;3.72;;
17686;SDS011;8962;52.538;13.266;2023-03-04T11:53:06;17.10;;;3.58;;
17686;SDS011;8962;52.538;13.266;2023-03-04T11:56:07;17.50;;;3.50;;
17686;SDS011;8962;52.538;13.266;2023-03-04T12:01:42;16.77;;;3.13;;
17686;SDS011;8962;52.538;13.266;2023-03-04T12:04:26;15.55;;;3.00;;
17686;SDS011;8962;52.538;13.266;2023-03-04T12:07:22;16.65;;;3.38;;
17686;SDS011;8962;52.538;13.266;2023-03-04T12:10:11;15.68;;;2.97;;
17686;SDS011;8962;52.538;13.266;2023-03-04T12:12:51;19.02;;;3.45;;
17686;SDS011;8962;52.538;13.266;2023-03-04T12:15:39;14.57;;;3.20;;
17686;SDS011;8962;52.538;13.266;2023-03-04T12:18:18;11.27;;;3.35;;
17686;SDS011;8962;52.538;13.266;2023-03-04T12:20:56;13.73;;;2.80;;
17686;SDS011;8962;52.538;13.266;2023-03-04T12:26:54;13.40;;;3.40;;
17686;SDS011;8962;52.538;13.266;2023-03-04T12:29:28;16.35;;;3.15;;
17686;SDS011;8962;52.538;13.266;2023-03-04T12:32:06;14.38;;;3.70;;
17686;SDS011;8962;52.538;13.266;2023-03-04T12:34:45;16.73;;;3.13;;
17686;SDS011;8962;52.538;13.266;2023-03-04T12:37:33;17.73;;;3.20;;
17686;SDS011;8962;52.538;13.266;2023-03-04T12:40:22;17.85;;;3.38;;
17686;SDS011;8962;52.538;13.266;2023-03-04T12:43:25;18.17;;;2.88;;
17686;SDS011;8962;52.538;13.266;2023-03-04T12:46:21;15.23;;;3.03;;
17686;SDS011;8962;52.538;13.266;2023-03-04T12:52:09;17.08;;;2.63;;
17686;SDS011;8962;52.538;13.266;2023-03-04T12:54:50;14.65;;;3.00;;
17686;SDS011;8962;52.538;13.266;2023-03-04T12:57:28;13.80;;;3.22;;
17686;SDS011;8962;52.538;13.266;2023-03-04T13:00:04;17.73;;;3.17;;
17686;SDS011;8962;52.538;13.266;2023-03-04T13:02:44;18.92;;;3.63;;
17686;SDS011;8962;52.538;13.266;2023-03-04T13:05:23;10.90;;;2.80;;
17686;SDS011;8962;52.538;13.266;2023-03-04T13:08:10;14.45;;;3.08;;
17686;SDS011;8962;52.538;13.266;2023-03-04T13:10:45;15.07;;;3.47;;
17686;SDS011;8962;52.538;13.266;2023-03-04T13:16:02;16.02;;;3.22;;
17686;SDS011;8962;52.538;13.266;2023-03-04T13:18:33;18.65;;;3.42;;
17686;SDS011;8962;52.538;13.266;2023-03-04T13:21:05;20.35;;;3.47;;
17686;SDS011;8962;52.538;13.266;2023-03-04T13:23:44;17.25;;;3.28;;
17686;SDS011;8962;52.538;13.266;2023-03-04T13:26:16;16.50;;;3.08;;
17686;SDS011;8962;52.538;13.266;2023-03-04T13:28:50;14.55;;;3.00;;
17686;SDS011;8962;52.538;13.266;2023-03-04T13:31:23;15.80;;;2.80;;
17686;SDS011;8962;52.538;13.266;2023-03-04T13:33:56;17.23;;;2.92;;
17686;SDS011;8962;52.538;13.266;2023-03-04T13:36:30;19.42;;;3.17;;
17686;SDS011;8962;52.538;13.266;2023-03-04T13:39:24;12.40;;;3.08;;
17686;SDS011;8962;52.538;13.266;2023-03-04T13:41:54;11.70;;;3.47;;
17686;SDS011;8962;52.538;13.266;2023-03-04T13:47:42;8.40;;;2.40;;
17686;SDS011;8962;52.538;13.266;2023-03-04T13:56:04;14.80;;;3.47;;
17686;SDS011;8962;52.538;13.266;2023-03-04T13:58:45;15.05;;;3.15;;
17686;SDS011;8962;52.538;13.266;2023-03-04T14:04:14;13.70;;;3.50;;
17686;SDS011;8962;52.538;13.266;2023-03-04T14:06:44;18.92;;;3.47;;
17686;SDS011;8962;52.538;13.266;2023-03-04T14:09:13;16.95;;;3.22;;
17686;SDS011;8962;52.538;13.266;2023-03-04T14:11:44;19.13;;;3.35;;
17686;SDS011;8962;52.538;13.266;2023-03-04T14:14:14;16.73;;;2.88;;
17686;SDS011;8962;52.538;13.266;2023-03-04T14:16:45;14.80;;;3.25;;
17686;SDS011;8962;52.538;13.266;2023-03-04T14:19:17;21.83;;;3.92;;
17686;SDS011;8962;52.538;13.266;2023-03-04T14:21:48;16.95;;;3.28;;
17686;SDS011;8962;52.538;13.266;2023-03-04T14:24:17;13.73;;;3.50;;
17686;SDS011;8962;52.538;13.266;2023-03-04T14:26:46;16.23;;;3.65;;
17686;SDS011;8962;52.538;13.266;2023-03-04T14:29:23;14.68;;;3.28;;
17686;SDS011;8962;52.538;13.266;2023-03-04T14:31:53;13.65;;;3.13;;
17686;SDS011;8962;52.538;13.266;2023-03-04T14:34:25;16.02;;;3.25;;
17686;SDS011;8962;52.538;13.266;2023-03-04T14:36:57;18.70;;;4.80;;
17686;SDS011;8962;52.538;13.266;2023-03-04T14:39:25;16.45;;;3.88;;
17686;SDS011;8962;52.538;13.266;2023-03-04T14:41:56;14.98;;;3.38;;
17686;SDS011;8962;52.538;13.266;2023-03-04T14:44:28;16.60;;;3.42;;
17686;SDS011;8962;52.538;13.266;2023-03-04T14:47:05;15.73;;;4.32;;
17686;SDS011;8962;52.538;13.266;2023-03-04T14:49:40;21.05;;;4.07;;
17686;SDS011;8962;52.538;13.266;2023-03-04T14:55:00;18.23;;;3.88;;
17686;SDS011;8962;52.538;13.266;2023-03-04T14:57:35;13.32;;;3.05;;
17686;SDS011;8962;52.538;13.266;2023-03-04T15:00:14;14.68;;;3.05;;
17686;SDS011;8962;52.538;13.266;2023-03-04T15:02:49;14.73;;;3.25;;
17686;SDS011;8962;52.538;13.266;2023-03-04T15:05:20;15.90;;;3.47;;
17686;SDS011;8962;52.538;13.266;2023-03-04T15:07:52;13.48;;;3.22;;
17686;SDS011;8962;52.538;13.266;2023-03-04T15:10:21;16.33;;;3.30;;
17686;SDS011;8962;52.538;13.266;2023-03-04T15:12:51;15.45;;;3.20;;
17686;SDS011;8962;52.538;13.266;2023-03-04T15:15:35;18.88;;;3.67;;
17686;SDS011;8962;52.538;13.266;2023-03-04T15:18:16;13.48;;;3.05;;
17686;SDS011;8962;52.538;13.266;2023-03-04T15:20:54;18.52;;;3.05;;
17686;SDS011;8962;52.538;13.266;2023-03-04T15:23:23;20.08;;;3.25;;
17686;SDS011;8962;52.538;13.266;2023-03-04T15:25:51;15.02;;;3.55;;